KOPF/OPF METAR and TAF weather

Enter ICAO airport designator
Station Type Date Time Source
KOPF METAR 2020/09/25 05:31 UTC NOAA

KOPF 250531Z 00000KT 10SM FEW013 SCT025 BKN033 25/24 A2996 RMK AO2 RAE06 P0001 T02500244 $


Station Type Date Time Source
KOPF Decoded METAR 2020/09/25 05:31 UTC NOAA

MIAMI OPA LOCKA AIRPORT, FL, United States (KOPF) 25-54N 80-17W 16M
Sep 25, 2020 - 01:31 AM EDT / 2020.09.25 0531 UTC
Wind: Calm:0
Visibility: 10 mile(s):0
Sky conditions: mostly cloudy
Precipitation last hour: 0.01 inches
Temperature: 77.0 F (25.0 C)
Dew Point: 75.9 F (24.4 C)
Relative Humidity: 96%
Pressure (altimeter): 29.96 in. Hg (1014 hPa)
ob: KOPF 250531Z 00000KT 10SM FEW013 SCT025 BKN033 25/24 A2996 RMK AO2 RAE06 P0001 T02500244
cycle: 5

Station Type Date Time Source
KOPF TAF 2020/09/25 06:40 UTC NOAA

TAF KOPF 250537Z 2506/2606 VRB03KT P6SM VCSH SCT015 BKN035
FM251300 16008KT P6SM VCSH SCT025 BKN050
FM251500 19010KT P6SM SHRA SCT025 BKN050 PROB30 2515/2521 4SM TSRA BKN035CB
FM252100 19010KT P6SM SHRA SCT015 BKN035 PROB30 2521/2524 TSRA SCT025CB
FM260100 VRB03KT P6SM SCT015 SCT150

Example: see airport list